createdAt,value
2019-01-16T00:01:36.111Z,2.73
2019-01-16T00:04:06.778Z,2.90
2019-01-16T00:08:48.073Z,3.33
2019-01-16T00:13:37.771Z,3.10
2019-01-16T00:16:08.459Z,2.40
2019-01-16T00:18:39.149Z,2.90
2019-01-16T00:21:09.839Z,3.23
2019-01-16T00:23:40.506Z,3.20
2019-01-16T00:26:11.204Z,3.03
2019-01-16T00:31:14.240Z,3.10
2019-01-16T00:33:44.901Z,2.60
2019-01-16T00:36:15.597Z,3.33
2019-01-16T00:38:46.263Z,3.37
2019-01-16T00:41:16.955Z,2.77
2019-01-16T00:43:47.638Z,3.10
2019-01-16T00:46:18.336Z,2.90
2019-01-16T00:48:49.047Z,3.00
2019-01-16T00:51:19.725Z,3.13
2019-01-16T00:53:50.397Z,3.67
2019-01-16T00:56:21.089Z,3.60
2019-01-16T01:06:15.526Z,2.90
2019-01-16T01:08:46.218Z,3.03
2019-01-16T01:11:16.915Z,3.50
2019-01-16T01:13:47.607Z,3.37
2019-01-16T01:16:18.279Z,3.03
2019-01-16T01:21:07.595Z,3.03
2019-01-16T01:23:38.279Z,2.90
2019-01-16T01:26:08.959Z,3.33
2019-01-16T01:30:58.768Z,3.00
2019-01-16T01:33:29.440Z,3.07
2019-01-16T01:36:00.139Z,3.00
2019-01-16T01:38:30.822Z,3.40
2019-01-16T01:41:01.512Z,3.30
2019-01-16T01:43:32.201Z,2.70
2019-01-16T01:46:02.865Z,3.50
2019-01-16T01:55:33.560Z,2.97
2019-01-16T02:02:55.448Z,3.73
2019-01-16T02:05:26.245Z,2.87
2019-01-16T02:07:56.953Z,3.60
2019-01-16T02:10:49.431Z,3.43
2019-01-16T02:13:20.096Z,3.63
2019-01-16T02:18:09.544Z,3.30
2019-01-16T02:23:02.954Z,3.40
2019-01-16T02:27:56.889Z,3.60
2019-01-16T02:30:49.285Z,3.40
2019-01-16T02:33:20.003Z,3.57
2019-01-16T02:35:50.751Z,3.40
2019-01-16T02:38:21.444Z,3.40
2019-01-16T02:43:10.793Z,3.60
2019-01-16T02:45:41.461Z,3.77
2019-01-16T02:48:12.269Z,3.40
2019-01-16T02:50:42.960Z,3.30
2019-01-16T02:53:13.626Z,3.70
2019-01-16T02:58:16.672Z,3.23
2019-01-16T03:00:47.345Z,3.43
2019-01-16T03:08:02.847Z,3.57
2019-01-16T03:10:33.522Z,3.33
2019-01-16T03:13:04.216Z,2.87
2019-01-16T03:18:07.252Z,3.53
2019-01-16T03:20:37.943Z,3.60
2019-01-16T03:23:08.639Z,3.27
2019-01-16T03:30:30.300Z,3.73
2019-01-16T03:33:00.989Z,4.00
2019-01-16T03:37:50.013Z,3.60
2019-01-16T03:40:20.696Z,3.27
2019-01-16T03:42:51.366Z,3.37
2019-01-16T03:45:43.833Z,3.77
2019-01-16T03:50:46.910Z,3.40
2019-01-16T03:53:17.579Z,3.30
2019-01-16T03:58:06.932Z,3.67
2019-01-16T04:00:37.616Z,3.60
2019-01-16T04:03:08.284Z,3.70
2019-01-16T04:07:57.726Z,4.00
2019-01-16T04:10:50.195Z,3.53
2019-01-16T04:15:53.223Z,4.10
2019-01-16T04:18:23.886Z,4.27
2019-01-16T04:20:54.573Z,4.07
2019-01-16T04:23:25.266Z,4.17
2019-01-16T04:25:55.947Z,4.57
2019-01-16T04:28:26.620Z,4.07
2019-01-16T04:33:29.663Z,4.50
2019-01-16T04:36:00.339Z,4.20
2019-01-16T04:38:31.031Z,4.77
2019-01-16T04:41:01.803Z,4.60
2019-01-16T04:43:32.512Z,5.10
2019-01-16T04:48:35.569Z,4.73
2019-01-16T04:51:06.230Z,5.00
2019-01-16T04:53:36.920Z,4.53
2019-01-16T04:58:39.972Z,5.17
2019-01-16T05:03:43.015Z,5.00
2019-01-16T05:08:46.033Z,5.07
2019-01-16T05:11:16.710Z,5.03
2019-01-16T05:16:09.521Z,4.70
2019-01-16T05:18:41.571Z,4.50
2019-01-16T05:21:12.789Z,4.20
2019-01-16T05:23:43.510Z,4.13
2019-01-16T05:26:14.181Z,4.10
2019-01-16T05:28:44.896Z,4.23
2019-01-16T05:35:53.226Z,4.23
2019-01-16T05:40:56.248Z,4.17
2019-01-16T05:48:21.437Z,4.07
2019-01-16T05:53:14.534Z,4.67
2019-01-16T05:55:45.232Z,3.77
2019-01-16T05:58:15.904Z,3.77
2019-01-16T06:00:46.612Z,4.57
2019-01-16T06:08:08.562Z,4.10
2019-01-16T06:10:39.281Z,5.17
2019-01-16T06:13:09.961Z,4.73
2019-01-16T06:17:59.560Z,4.63
2019-01-16T06:20:51.995Z,4.30
2019-01-16T06:23:22.686Z,5.00
2019-01-16T06:25:53.397Z,4.20
2019-01-16T06:28:24.086Z,4.63
2019-01-16T06:33:33.568Z,4.03
2019-01-16T06:36:04.240Z,3.90
2019-01-16T06:38:34.935Z,4.50
2019-01-16T06:41:05.612Z,4.07
2019-01-16T06:43:36.315Z,4.93
2019-01-16T06:46:06.997Z,5.13
2019-01-16T06:48:37.726Z,5.37
2019-01-16T06:51:08.391Z,5.20
2019-01-16T06:53:39.085Z,5.63
2019-01-16T06:58:42.108Z,4.73
2019-01-16T07:01:12.778Z,4.80
2019-01-16T07:03:43.473Z,5.43
2019-01-16T07:06:14.179Z,5.07
2019-01-16T07:08:44.865Z,4.70
2019-01-16T07:11:15.551Z,4.17
2019-01-16T07:16:05.005Z,4.40
2019-01-16T07:20:54.171Z,4.67
2019-01-16T07:23:24.864Z,4.20
2019-01-16T07:25:55.550Z,4.83
2019-01-16T07:28:26.240Z,5.00
2019-01-16T07:35:38.008Z,4.90
2019-01-16T07:38:08.681Z,4.23
2019-01-16T07:40:39.388Z,4.63
2019-01-16T07:45:42.617Z,4.53
2019-01-16T07:48:13.308Z,4.50
2019-01-16T07:53:06.147Z,4.20
2019-01-16T07:55:36.824Z,5.00
2019-01-16T07:58:07.519Z,5.17
2019-01-16T08:00:38.230Z,5.23
2019-01-16T08:03:08.906Z,5.13
2019-01-16T08:05:39.577Z,4.57
2019-01-16T08:08:10.280Z,5.30
2019-01-16T08:10:40.987Z,5.20
2019-01-16T08:18:02.798Z,4.90
2019-01-16T08:27:33.374Z,4.43
2019-01-16T08:32:36.517Z,4.97
2019-01-16T08:35:07.363Z,5.37
2019-01-16T08:42:15.489Z,5.33
2019-01-16T08:44:46.184Z,5.30
2019-01-16T08:47:16.884Z,4.33
2019-01-16T08:49:47.540Z,4.93
2019-01-16T08:52:18.243Z,4.83
2019-01-16T08:54:48.923Z,5.10
2019-01-16T08:57:19.594Z,4.93
2019-01-16T08:59:50.282Z,4.97
2019-01-16T09:07:11.953Z,4.80
2019-01-16T09:09:42.632Z,4.70
2019-01-16T09:12:13.521Z,5.10
2019-01-16T09:14:44.262Z,5.20
2019-01-16T09:17:14.961Z,4.97
2019-01-16T09:19:45.670Z,5.57
2019-01-16T09:22:16.364Z,5.23
2019-01-16T09:24:47.051Z,4.63
2019-01-16T09:31:55.406Z,5.60
2019-01-16T09:36:48.413Z,5.20
2019-01-16T09:41:37.667Z,5.37
2019-01-16T09:44:17.045Z,6.37
2019-01-16T09:46:47.813Z,5.53
2019-01-16T09:49:18.518Z,6.50
2019-01-16T09:59:06.631Z,6.03
2019-01-16T10:01:37.311Z,5.83
2019-01-16T10:04:08.120Z,6.00
2019-01-16T10:06:38.819Z,7.30
2019-01-16T10:09:09.536Z,5.53
2019-01-16T10:14:12.720Z,5.40
2019-01-16T10:19:15.802Z,5.37
2019-01-16T10:21:46.485Z,4.53
2019-01-16T10:24:17.180Z,4.90
2019-01-16T10:26:47.875Z,4.37
2019-01-16T10:31:51.053Z,4.97
2019-01-16T10:34:21.766Z,5.13
2019-01-16T10:36:52.557Z,4.60
2019-01-16T10:39:45.043Z,4.90
2019-01-16T10:42:15.751Z,4.80
2019-01-16T10:47:18.803Z,5.23
2019-01-16T10:49:49.500Z,4.70
2019-01-16T10:57:00.959Z,5.40
2019-01-16T10:59:31.635Z,4.77
2019-01-16T11:04:20.818Z,5.00
2019-01-16T11:06:51.504Z,5.37
2019-01-16T11:09:43.966Z,4.73
2019-01-16T11:12:14.674Z,4.90
2019-01-16T11:14:45.360Z,5.67
2019-01-16T11:17:16.081Z,5.17
2019-01-16T11:19:46.757Z,5.87
2019-01-16T11:22:17.466Z,5.40
2019-01-16T11:24:48.156Z,5.03
2019-01-16T11:27:18.859Z,4.60
2019-01-16T11:29:49.538Z,4.83
2019-01-16T11:32:20.254Z,4.43
2019-01-16T11:34:50.936Z,4.37
2019-01-16T11:37:21.636Z,6.00
2019-01-16T11:39:52.415Z,5.53
2019-01-16T11:42:23.114Z,5.13
2019-01-16T11:44:53.790Z,4.77
2019-01-16T11:49:56.920Z,5.57
2019-01-16T11:52:27.616Z,4.87
2019-01-16T11:54:58.380Z,5.13
2019-01-16T12:02:23.815Z,4.43
2019-01-16T12:04:54.522Z,5.00
2019-01-16T12:07:25.200Z,4.57
2019-01-16T12:12:14.751Z,4.77
2019-01-16T12:14:45.562Z,4.93
2019-01-16T12:19:38.555Z,4.03
2019-01-16T12:29:19.125Z,4.60
2019-01-16T12:31:50.715Z,4.60
2019-01-16T12:36:40.158Z,5.00
2019-01-16T12:39:10.873Z,4.23
2019-01-16T12:41:41.556Z,4.70
2019-01-16T12:46:44.649Z,4.33
2019-01-16T12:49:15.382Z,4.47
2019-01-16T12:51:46.085Z,4.03
2019-01-16T12:54:16.788Z,3.77
2019-01-16T12:56:47.489Z,4.57
2019-01-16T12:59:18.161Z,3.20
2019-01-16T13:01:48.867Z,4.27
2019-01-16T13:06:51.904Z,4.40
2019-01-16T13:09:44.364Z,4.90
2019-01-16T13:12:15.053Z,4.40
2019-01-16T13:14:45.746Z,4.70
2019-01-16T13:17:16.463Z,4.53
2019-01-16T13:22:19.497Z,4.70
2019-01-16T13:24:50.178Z,3.67
2019-01-16T13:27:20.987Z,4.37
2019-01-16T13:32:24.228Z,4.57
2019-01-16T13:34:54.911Z,3.87
2019-01-16T13:37:25.610Z,5.20
2019-01-16T13:39:56.319Z,3.80
2019-01-16T13:42:27.310Z,3.80
2019-01-16T13:44:58.223Z,4.60
2019-01-16T13:47:29.017Z,4.37
2019-01-16T13:49:59.758Z,4.07
2019-01-16T13:52:30.539Z,4.70
2019-01-16T13:55:01.250Z,5.20
2019-01-16T13:57:32.044Z,4.90
2019-01-16T14:00:02.745Z,3.93
2019-01-16T14:02:33.427Z,5.00
2019-01-16T14:07:27.047Z,4.60
2019-01-16T14:09:57.833Z,3.90
2019-01-16T14:19:42.283Z,4.40
2019-01-16T14:24:45.361Z,4.33
2019-01-16T14:27:16.084Z,4.83
2019-01-16T14:29:46.964Z,4.27
2019-01-16T14:32:17.780Z,4.40
2019-01-16T14:34:48.450Z,4.60
2019-01-16T14:37:19.160Z,4.07
2019-01-16T14:39:49.860Z,4.30
2019-01-16T14:44:42.642Z,4.97
2019-01-16T14:54:10.378Z,4.67
2019-01-16T14:56:41.087Z,4.20
2019-01-16T14:59:11.893Z,4.60
2019-01-16T15:04:15.118Z,3.73
2019-01-16T15:09:18.179Z,4.43
2019-01-16T15:11:48.876Z,3.00
2019-01-16T15:14:19.582Z,4.23
2019-01-16T15:21:45.215Z,4.70
2019-01-16T15:24:15.910Z,4.93
2019-01-16T15:26:46.609Z,4.23
2019-01-16T15:29:17.312Z,4.00
2019-01-16T15:31:48.003Z,4.07
2019-01-16T15:34:18.714Z,3.67
2019-01-16T15:36:49.439Z,4.27
2019-01-16T15:41:52.601Z,4.47
2019-01-16T15:44:23.422Z,4.70
2019-01-16T15:46:54.155Z,5.00
2019-01-16T15:51:57.252Z,4.10
2019-01-16T15:57:00.417Z,4.33
2019-01-16T16:02:03.588Z,3.63
2019-01-16T16:07:06.643Z,4.10
2019-01-16T16:12:09.704Z,3.60
2019-01-16T16:14:40.373Z,3.70
2019-01-16T16:17:11.076Z,4.27
2019-01-16T16:22:19.284Z,3.97
2019-01-16T16:24:46.703Z,4.67
2019-01-16T16:29:36.248Z,4.43
2019-01-16T16:34:25.488Z,4.53
2019-01-16T16:36:56.292Z,5.03
2019-01-16T16:39:48.716Z,3.40
2019-01-16T16:42:19.410Z,4.13
2019-01-16T16:44:50.092Z,4.87
2019-01-16T16:47:20.970Z,4.60
2019-01-16T16:49:51.662Z,4.43
2019-01-16T16:54:44.728Z,4.70
2019-01-16T16:57:15.438Z,4.63
2019-01-16T17:02:18.493Z,5.30
2019-01-16T17:04:49.180Z,4.73
2019-01-16T17:09:52.340Z,4.40
2019-01-16T17:12:23.157Z,4.70
2019-01-16T17:17:16.455Z,4.40
2019-01-16T17:19:47.170Z,4.30
2019-01-16T17:22:17.853Z,4.27
2019-01-16T17:24:48.567Z,4.60
2019-01-16T17:27:19.253Z,4.30
2019-01-16T17:29:49.955Z,4.17
2019-01-16T17:32:20.680Z,5.13
2019-01-16T17:34:51.430Z,4.43
2019-01-16T17:37:22.213Z,4.50
2019-01-16T17:39:52.922Z,5.00
2019-01-16T17:44:56.155Z,4.63
2019-01-16T17:47:26.951Z,4.70
2019-01-16T17:49:57.692Z,4.33
2019-01-16T17:52:28.569Z,4.87
2019-01-16T18:00:00.765Z,4.90
2019-01-16T18:05:03.859Z,4.53
2019-01-16T18:07:34.550Z,4.83
2019-01-16T18:10:05.252Z,4.60
2019-01-16T18:12:35.945Z,4.77
2019-01-16T18:15:06.614Z,4.53
2019-01-16T18:17:37.354Z,4.20
2019-01-16T18:20:08.043Z,4.40
2019-01-16T18:22:38.747Z,4.63
2019-01-16T18:25:09.439Z,4.57
2019-01-16T18:27:40.200Z,4.80
2019-01-16T18:30:10.876Z,4.17
2019-01-16T18:32:42.532Z,4.13
2019-01-16T18:40:04.184Z,4.27
2019-01-16T18:42:34.910Z,3.80
2019-01-16T18:47:37.988Z,3.87
2019-01-16T18:50:08.722Z,3.90
2019-01-16T18:52:39.441Z,4.00
2019-01-16T19:00:14.913Z,4.07
2019-01-16T19:02:45.736Z,4.13
2019-01-16T19:05:16.390Z,4.00
2019-01-16T19:07:47.106Z,3.60
2019-01-16T19:10:17.900Z,3.97
2019-01-16T19:12:48.603Z,3.40
2019-01-16T19:15:19.407Z,4.20
2019-01-16T19:17:50.123Z,3.50
2019-01-16T19:20:21.298Z,3.87
2019-01-16T19:25:24.602Z,3.60
2019-01-16T19:27:55.346Z,3.47
2019-01-16T19:33:05.086Z,3.77
2019-01-16T19:35:35.834Z,3.80
2019-01-16T19:40:39.014Z,3.57
2019-01-16T19:43:09.806Z,3.90
2019-01-16T19:45:40.510Z,4.17
2019-01-16T19:48:11.210Z,3.67
2019-01-16T19:50:41.989Z,4.17
2019-01-16T19:53:12.686Z,4.03
2019-01-16T19:55:43.437Z,3.63
2019-01-16T19:58:14.125Z,3.77
2019-01-16T20:00:44.982Z,4.07
2019-01-16T20:03:15.691Z,3.60
2019-01-16T20:05:46.400Z,3.73
2019-01-16T20:08:17.140Z,3.43
2019-01-16T20:10:47.823Z,3.30
2019-01-16T20:13:18.826Z,3.57
2019-01-16T20:15:49.548Z,3.47
2019-01-16T20:18:20.277Z,3.63
2019-01-16T20:23:23.544Z,3.33
2019-01-16T20:25:54.233Z,3.20
2019-01-16T20:30:43.769Z,3.43
2019-01-16T20:33:14.478Z,3.43
2019-01-16T20:38:17.610Z,3.43
2019-01-16T20:43:20.686Z,3.23
2019-01-16T20:45:51.490Z,3.23
2019-01-16T20:48:22.482Z,3.67
2019-01-16T20:50:53.175Z,3.20
2019-01-16T20:55:45.942Z,3.53
2019-01-16T21:02:56.641Z,3.30
2019-01-16T21:10:08.590Z,3.40
2019-01-16T21:12:39.280Z,2.87
2019-01-16T21:15:09.990Z,2.90
2019-01-16T21:17:40.694Z,3.43
2019-01-16T21:20:11.422Z,3.63
2019-01-16T21:22:42.446Z,3.30
2019-01-16T21:25:16.297Z,3.37
2019-01-16T21:27:45.902Z,3.13
2019-01-16T21:30:16.599Z,3.00
2019-01-16T21:32:47.294Z,3.10
2019-01-16T21:35:18.120Z,3.23
2019-01-16T21:40:42.948Z,3.07
2019-01-16T21:43:13.673Z,3.33
2019-01-16T21:48:06.474Z,3.00
2019-01-16T21:50:37.154Z,3.00
2019-01-16T21:55:30.254Z,3.43
2019-01-16T22:00:19.654Z,2.93
2019-01-16T22:02:50.376Z,3.10
2019-01-16T22:05:21.163Z,2.97
2019-01-16T22:07:51.857Z,3.43
2019-01-16T22:10:44.313Z,3.00
2019-01-16T22:17:56.323Z,3.33
2019-01-16T22:20:27.115Z,2.80
2019-01-16T22:25:16.479Z,3.10
2019-01-16T22:30:19.735Z,3.03
2019-01-16T22:32:50.571Z,2.87
2019-01-16T22:35:21.387Z,3.47
2019-01-16T22:37:52.131Z,2.83
2019-01-16T22:40:44.624Z,3.43
2019-01-16T22:43:15.424Z,3.30
2019-01-16T22:50:45.393Z,2.80
2019-01-16T22:53:16.096Z,3.67
2019-01-16T22:55:46.997Z,3.10
2019-01-16T22:58:17.678Z,2.87
2019-01-16T23:01:10.166Z,3.40
2019-01-16T23:03:40.926Z,3.00
2019-01-16T23:10:52.797Z,3.27
2019-01-16T23:13:23.471Z,2.77
2019-01-16T23:15:54.258Z,2.90
2019-01-16T23:18:24.933Z,2.77
2019-01-16T23:20:55.642Z,3.20
2019-01-16T23:25:58.710Z,3.10
2019-01-16T23:28:29.379Z,3.30
2019-01-16T23:31:00.287Z,2.90
2019-01-16T23:33:31.055Z,3.20
2019-01-16T23:36:01.759Z,2.93
2019-01-16T23:38:32.425Z,2.70
2019-01-16T23:43:35.558Z,3.23
2019-01-16T23:46:06.237Z,2.93
2019-01-16T23:50:59.337Z,3.10
2019-01-16T23:53:30.030Z,3.00
2019-01-16T23:56:00.709Z,3.27
2019-01-16T23:58:31.412Z,2.73
